Time;durP1;ratioP1;P1;durP2;ratioP2;P2;SDS_P1;SDS_P2;PMS_P1;PMS_P2;Temp;Humidity;BMP_temperature;BMP_pressure;BME280_temperature;BME280_humidity;BME280_pressure;Samples;Min_cycle;Max_cycle;Signal;HPM_P1;HPM_P2
2023/08/23 00:01:58;;;;;;;2.55;2.30;;;26.70;99.90;;;;;;7391055;19;20628;-79
2023/08/23 00:04:24;;;;;;;6.78;2.55;;;26.70;99.90;;;;;;7389407;19;20158;-80
2023/08/23 00:06:50;;;;;;;4.25;2.47;;;26.80;99.90;;;;;;7391324;19;20146;-79
2023/08/23 00:09:16;;;;;;;3.60;2.35;;;26.60;99.90;;;;;;7390565;19;20135;-79
2023/08/23 00:11:43;;;;;;;3.78;2.53;;;26.50;99.90;;;;;;7391932;19;20459;-79
2023/08/23 00:14:09;;;;;;;2.55;2.35;;;26.50;99.90;;;;;;7390880;19;20147;-80
2023/08/23 00:16:36;;;;;;;4.82;2.63;;;26.50;99.90;;;;;;7390952;19;20150;-80
2023/08/23 00:19:02;;;;;;;3.40;2.70;;;26.20;99.90;;;;;;7389978;19;20135;-79
2023/08/23 00:21:28;;;;;;;6.00;2.60;;;26.00;99.90;;;;;;7389246;19;20145;-80
2023/08/23 00:23:55;;;;;;;4.72;2.58;;;26.20;99.90;;;;;;7389630;19;20135;-80
2023/08/23 00:26:21;;;;;;;5.22;2.70;;;26.30;99.90;;;;;;7390312;19;20222;-80
2023/08/23 00:28:46;;;;;;;2.50;2.30;;;26.40;99.90;;;;;;7386732;19;20556;-80
2023/08/23 00:31:12;;;;;;;3.30;2.50;;;26.40;99.90;;;;;;7390493;19;20143;-80
2023/08/23 00:33:38;;;;;;;3.25;2.35;;;26.40;99.90;;;;;;7389561;19;20138;-80
2023/08/23 00:36:04;;;;;;;5.55;2.58;;;26.50;99.90;;;;;;7390138;19;20213;-79
2023/08/23 00:38:30;;;;;;;3.17;2.40;;;26.40;99.90;;;;;;7391693;19;20251;-78
2023/08/23 00:40:56;;;;;;;3.83;2.78;;;26.30;99.90;;;;;;7388393;19;20138;-80
2023/08/23 00:43:21;;;;;;;3.67;2.63;;;26.30;99.90;;;;;;7390522;19;20138;-80
2023/08/23 00:45:47;;;;;;;4.88;2.88;;;26.30;99.90;;;;;;7388540;19;20146;-80
2023/08/23 00:48:13;;;;;;;2.67;2.35;;;26.10;99.90;;;;;;7391921;19;20138;-80
2023/08/23 00:50:40;;;;;;;6.10;2.90;;;26.10;99.90;;;;;;7392119;19;20138;-79
2023/08/23 00:53:08;;;;;;;3.92;2.67;;;26.10;99.90;;;;;;7391584;19;20599;-79
2023/08/23 00:55:35;;;;;;;5.10;2.72;;;26.10;99.90;;;;;;7388113;19;20163;-79
2023/08/23 00:58:02;;;;;;;4.05;2.65;;;26.00;99.90;;;;;;7391524;19;20123;-80
2023/08/23 01:00:28;;;;;;;4.68;2.83;;;26.00;99.90;;;;;;7387562;19;20199;-80
2023/08/23 01:02:53;;;;;;;3.20;2.88;;;26.00;99.90;;;;;;7389046;19;20470;-79
2023/08/23 01:05:30;;;;;;;5.38;2.83;;;25.90;99.90;;;;;;7386819;19;20151;-79
2023/08/23 01:08:03;;;;;;;7.03;3.50;;;25.90;99.90;;;;;;7388368;19;20154;-79
2023/08/23 01:10:39;;;;;;;6.10;3.58;;;25.70;99.90;;;;;;7390619;19;20203;-80
2023/08/23 01:13:30;;;;;;;3.88;2.92;;;25.70;99.90;;;;;;7386582;19;20167;-79
2023/08/23 01:15:58;;;;;;;3.95;3.05;;;25.70;99.90;;;;;;7387407;19;20198;-80
2023/08/23 01:18:26;;;;;;;3.40;2.70;;;25.70;99.90;;;;;;7387905;19;20169;-79
2023/08/23 01:20:53;;;;;;;3.58;2.92;;;25.80;99.90;;;;;;7386155;19;20172;-80
2023/08/23 01:23:20;;;;;;;3.75;3.10;;;25.80;99.90;;;;;;7390647;19;20477;-80
2023/08/23 01:25:53;;;;;;;4.70;3.25;;;25.80;99.90;;;;;;7387249;19;20141;-80
2023/08/23 01:28:20;;;;;;;5.43;2.63;;;25.70;99.90;;;;;;7388668;19;20130;-80
2023/08/23 01:30:47;;;;;;;5.28;3.08;;;25.80;99.90;;;;;;7390240;19;20137;-80
2023/08/23 01:33:35;;;;;;;4.13;2.80;;;25.80;99.90;;;;;;7388790;19;20157;-80
2023/08/23 01:36:19;;;;;;;3.85;2.60;;;25.80;99.90;;;;;;7386926;19;20210;-79
2023/08/23 01:38:47;;;;;;;4.07;2.92;;;25.80;99.90;;;;;;7388623;19;20597;-79
2023/08/23 01:41:14;;;;;;;5.35;3.20;;;25.80;99.90;;;;;;7386219;19;20134;-80
2023/08/23 01:43:40;;;;;;;6.15;3.03;;;25.80;99.90;;;;;;7386936;19;20127;-79
2023/08/23 01:46:05;;;;;;;6.47;2.88;;;25.70;99.90;;;;;;7388417;19;20162;-79
2023/08/23 01:48:31;;;;;;;4.07;2.80;;;25.60;99.90;;;;;;7387464;19;20222;-79
2023/08/23 01:50:57;;;;;;;5.00;3.15;;;25.50;99.90;;;;;;7389283;19;20433;-79
2023/08/23 01:53:23;;;;;;;3.70;2.80;;;25.50;99.90;;;;;;7390045;19;20151;-80
2023/08/23 01:55:49;;;;;;;4.05;2.60;;;25.40;99.90;;;;;;7388637;19;20146;-80
2023/08/23 01:58:15;;;;;;;5.68;3.20;;;25.40;99.90;;;;;;7387642;19;20752;-79
2023/08/23 02:00:48;;;;;;;6.28;2.97;;;25.50;99.90;;;;;;7385727;19;20153;-80
2023/08/23 02:03:14;;;;;;;4.82;2.80;;;25.30;99.90;;;;;;7388338;19;20841;-79
2023/08/23 02:05:40;;;;;;;4.03;2.67;;;25.40;99.90;;;;;;7386379;19;20482;-80
2023/08/23 02:08:06;;;;;;;4.97;3.17;;;25.30;99.90;;;;;;7387357;19;20135;-79
2023/08/23 02:10:31;;;;;;;4.30;2.58;;;25.30;99.90;;;;;;7387380;19;20147;-79
2023/08/23 02:12:57;;;;;;;3.63;3.00;;;25.20;99.90;;;;;;7387353;19;20218;-80
2023/08/23 02:15:23;;;;;;;4.45;2.97;;;25.30;99.90;;;;;;7386842;19;20177;-80
2023/08/23 02:17:50;;;;;;;4.60;3.28;;;25.30;99.90;;;;;;7387732;19;20154;-80
2023/08/23 02:20:16;;;;;;;4.38;2.72;;;25.30;99.90;;;;;;7387082;19;20131;-80
2023/08/23 02:22:42;;;;;;;4.47;2.95;;;25.30;99.90;;;;;;7388448;19;20578;-80
2023/08/23 02:25:08;;;;;;;3.83;3.25;;;25.20;99.90;;;;;;7385596;19;20155;-79
2023/08/23 02:27:33;;;;;;;4.47;3.25;;;25.20;99.90;;;;;;7386968;19;20131;-79
2023/08/23 02:29:59;;;;;;;3.67;2.90;;;25.20;99.90;;;;;;7384005;19;20587;-79
2023/08/23 02:32:26;;;;;;;5.07;3.22;;;25.20;99.90;;;;;;7385977;19;20126;-79
2023/08/23 02:34:51;;;;;;;3.88;3.00;;;25.20;99.90;;;;;;7385434;19;20131;-79
2023/08/23 02:37:17;;;;;;;5.20;3.17;;;25.20;99.90;;;;;;7387169;19;20169;-79
2023/08/23 02:39:43;;;;;;;4.28;3.08;;;25.30;99.90;;;;;;7385509;19;20159;-79
2023/08/23 02:42:11;;;;;;;4.35;2.88;;;25.30;99.90;;;;;;7384204;19;20501;-78
2023/08/23 02:44:37;;;;;;;4.40;3.17;;;25.20;99.90;;;;;;7386022;19;20147;-79
2023/08/23 02:47:02;;;;;;;5.95;3.42;;;25.30;99.90;;;;;;7385303;19;20148;-79
2023/08/23 02:49:28;;;;;;;5.13;3.25;;;25.30;99.90;;;;;;7387670;19;20155;-79
2023/08/23 02:51:54;;;;;;;3.95;2.88;;;25.30;99.90;;;;;;7384720;19;20194;-80
2023/08/23 02:54:20;;;;;;;6.65;3.10;;;25.30;99.90;;;;;;7385988;19;20131;-79
2023/08/23 02:56:45;;;;;;;4.75;2.80;;;25.30;99.90;;;;;;7387584;19;20202;-80
2023/08/23 02:59:11;;;;;;;5.00;3.03;;;25.20;99.90;;;;;;7386049;19;20579;-79
2023/08/23 03:01:37;;;;;;;4.07;3.22;;;25.20;99.90;;;;;;7382701;19;20505;-79
2023/08/23 03:04:03;;;;;;;3.47;3.05;;;25.30;99.90;;;;;;7383209;19;20182;-80
2023/08/23 03:06:29;;;;;;;3.70;3.30;;;25.30;99.90;;;;;;7386715;19;20147;-80
2023/08/23 03:08:54;;;;;;;4.30;3.15;;;25.20;99.90;;;;;;7385392;19;20123;-80
2023/08/23 03:11:20;;;;;;;5.18;3.53;;;25.10;99.90;;;;;;7386206;19;20222;-80
2023/08/23 03:13:46;;;;;;;4.32;3.38;;;25.00;99.90;;;;;;7385325;19;20831;-80
2023/08/23 03:16:11;;;;;;;4.40;2.95;;;25.00;99.90;;;;;;7387068;19;20135;-80
2023/08/23 03:18:37;;;;;;;4.30;3.03;;;25.00;99.90;;;;;;7384992;19;20135;-80
2023/08/23 03:21:03;;;;;;;7.00;2.70;;;24.90;99.90;;;;;;7384161;19;20594;-79
2023/08/23 03:23:29;;;;;;;3.95;2.75;;;25.00;99.90;;;;;;7386453;19;20146;-80
2023/08/23 03:25:54;;;;;;;3.42;3.03;;;24.90;99.90;;;;;;7388841;19;20127;-79
2023/08/23 03:28:20;;;;;;;3.78;3.22;;;24.80;99.90;;;;;;7390556;19;20598;-79
2023/08/23 03:30:46;;;;;;;5.63;3.40;;;24.80;99.90;;;;;;7393085;19;20607;-80
2023/08/23 03:33:12;;;;;;;4.10;3.10;;;24.80;99.90;;;;;;7391709;19;20257;-79
2023/08/23 03:35:38;;;;;;;5.05;3.42;;;24.80;99.90;;;;;;7388120;19;20496;-79
2023/08/23 03:38:04;;;;;;;5.50;3.72;;;24.80;99.90;;;;;;7391368;19;20154;-79
2023/08/23 03:40:35;;;;;;;3.88;3.05;;;24.70;99.90;;;;;;7390463;19;20258;-79
2023/08/23 03:43:02;;;;;;;3.83;3.42;;;24.70;99.90;;;;;;7389632;19;20540;-79
2023/08/23 03:45:30;;;;;;;4.53;3.35;;;24.80;99.90;;;;;;7391403;19;20167;-78
2023/08/23 03:47:56;;;;;;;3.92;3.40;;;24.70;99.90;;;;;;7393118;19;20463;-78
2023/08/23 03:50:22;;;;;;;7.30;2.88;;;24.70;99.90;;;;;;7391164;19;20141;-78
2023/08/23 03:52:48;;;;;;;4.22;3.55;;;24.70;99.90;;;;;;7390631;19;20147;-78
2023/08/23 03:55:13;;;;;;;4.72;3.67;;;24.70;99.90;;;;;;7390104;19;20166;-79
2023/08/23 03:57:39;;;;;;;4.57;3.60;;;24.50;99.90;;;;;;7392360;19;20134;-79
2023/08/23 04:00:06;;;;;;;5.20;3.30;;;24.50;99.90;;;;;;7391043;19;20815;-79
2023/08/23 04:02:32;;;;;;;5.47;3.38;;;24.40;99.90;;;;;;7391453;19;20139;-81
2023/08/23 04:04:58;;;;;;;3.83;3.08;;;24.50;99.90;;;;;;7388546;19;20169;-78
2023/08/23 04:07:23;;;;;;;5.68;3.38;;;24.50;99.90;;;;;;7390310;19;20194;-78
2023/08/23 04:09:49;;;;;;;3.85;3.45;;;24.50;99.90;;;;;;7390587;19;20151;-80
2023/08/23 04:12:15;;;;;;;3.85;3.33;;;24.50;99.90;;;;;;7390395;19;20253;-80
2023/08/23 04:14:40;;;;;;;5.95;3.30;;;24.50;99.90;;;;;;7391416;19;20146;-79
2023/08/23 04:17:06;;;;;;;4.68;3.45;;;24.40;99.90;;;;;;7390785;19;20139;-79
2023/08/23 04:19:32;;;;;;;4.88;3.35;;;24.50;99.90;;;;;;7389704;19;20147;-78
2023/08/23 04:21:58;;;;;;;3.75;3.45;;;24.50;99.90;;;;;;7390046;19;20706;-78
2023/08/23 04:24:23;;;;;;;4.47;3.70;;;24.50;99.90;;;;;;7389304;19;20134;-79
2023/08/23 04:26:49;;;;;;;5.78;3.35;;;24.40;99.90;;;;;;7390030;19;20146;-80
2023/08/23 04:29:15;;;;;;;5.28;3.38;;;24.40;99.90;;;;;;7391695;19;20625;-80
2023/08/23 04:31:40;;;;;;;4.13;3.60;;;24.40;99.90;;;;;;7391002;19;20142;-79
2023/08/23 04:34:06;;;;;;;6.10;3.40;;;24.30;99.90;;;;;;7390297;19;20583;-78
2023/08/23 04:36:32;;;;;;;6.20;3.80;;;24.30;99.90;;;;;;7387842;19;20143;-78
2023/08/23 04:38:58;;;;;;;5.05;3.33;;;24.40;99.90;;;;;;7391531;19;20691;-78
2023/08/23 04:41:23;;;;;;;4.53;4.10;;;24.30;99.90;;;;;;7387980;19;20126;-78
2023/08/23 04:43:49;;;;;;;4.13;3.72;;;24.40;99.90;;;;;;7392512;19;20152;-79
2023/08/23 04:46:16;;;;;;;6.25;3.45;;;24.30;99.90;;;;;;7388999;19;20196;-79
2023/08/23 04:48:41;;;;;;;3.60;3.13;;;24.30;99.90;;;;;;7392515;19;20474;-79
2023/08/23 04:51:11;;;;;;;3.53;3.10;;;24.30;99.90;;;;;;7391020;19;20169;-79
2023/08/23 04:53:37;;;;;;;5.25;3.53;;;24.40;99.90;;;;;;7389130;19;20150;-79
2023/08/23 04:56:03;;;;;;;5.50;3.75;;;24.30;99.90;;;;;;7389052;19;20155;-79
2023/08/23 04:58:32;;;;;;;4.28;3.55;;;24.30;99.90;;;;;;7390907;19;20134;-79
2023/08/23 05:01:03;;;;;;;5.38;3.53;;;24.30;99.90;;;;;;7388036;19;20150;-79
2023/08/23 05:03:30;;;;;;;3.53;3.08;;;24.20;99.90;;;;;;7392188;19;20179;-79
2023/08/23 05:05:59;;;;;;;5.45;3.47;;;24.10;99.90;;;;;;7388700;19;20157;-78
2023/08/23 05:08:27;;;;;;;5.38;3.83;;;24.20;99.90;;;;;;7389950;19;20606;-79
2023/08/23 05:10:54;;;;;;;5.15;3.17;;;24.30;99.90;;;;;;7389447;19;20214;-79
2023/08/23 05:13:21;;;;;;;5.07;3.13;;;24.30;99.90;;;;;;7390885;19;20506;-79
2023/08/23 05:15:54;;;;;;;4.10;3.03;;;24.20;99.90;;;;;;7389387;19;20142;-79
2023/08/23 05:18:20;;;;;;;4.43;3.70;;;24.30;99.90;;;;;;7390147;19;20134;-79
2023/08/23 05:20:46;;;;;;;5.90;3.63;;;24.30;99.90;;;;;;7388190;19;20135;-79
2023/08/23 05:23:12;;;;;;;6.35;3.60;;;24.30;99.90;;;;;;7388957;19;20266;-78
2023/08/23 05:25:37;;;;;;;8.90;3.60;;;24.30;99.90;;;;;;7388750;19;20180;-80
2023/08/23 05:28:03;;;;;;;4.53;3.38;;;24.30;99.90;;;;;;7388075;19;20180;-78
2023/08/23 05:30:31;;;;;;;4.60;3.50;;;24.30;99.90;;;;;;7388180;19;20491;-79
2023/08/23 05:32:56;;;;;;;5.43;3.53;;;24.30;99.90;;;;;;7386663;19;20218;-80
2023/08/23 05:35:22;;;;;;;3.75;3.33;;;24.30;99.90;;;;;;7387375;19;20155;-82
2023/08/23 05:37:48;;;;;;;4.63;3.20;;;24.30;99.90;;;;;;7387333;19;20206;-81
2023/08/23 05:40:14;;;;;;;4.50;3.38;;;24.20;99.90;;;;;;7389968;19;20131;-82
2023/08/23 05:42:39;;;;;;;4.55;3.78;;;24.30;99.90;;;;;;7386813;19;20134;-82
2023/08/23 05:45:06;;;;;;;10.00;3.55;;;24.30;99.90;;;;;;7388153;19;20135;-80
2023/08/23 05:47:31;;;;;;;4.78;3.50;;;24.30;99.90;;;;;;7387603;19;20142;-81
2023/08/23 05:49:57;;;;;;;6.22;4.20;;;24.30;99.90;;;;;;7388279;19;20597;-80
2023/08/23 05:52:23;;;;;;;4.57;3.53;;;24.40;99.90;;;;;;7388097;19;20627;-79
2023/08/23 05:54:49;;;;;;;6.63;3.75;;;24.40;99.90;;;;;;7388407;19;20587;-78
2023/08/23 05:57:14;;;;;;;6.78;4.43;;;24.30;99.90;;;;;;7388140;19;20134;-79
2023/08/23 05:59:40;;;;;;;5.88;4.10;;;24.20;99.90;;;;;;7388479;19;20218;-80
2023/08/23 06:02:06;;;;;;;4.32;3.90;;;24.10;99.90;;;;;;7388003;19;20154;-79
2023/08/23 06:04:32;;;;;;;4.68;4.00;;;24.10;99.90;;;;;;7385256;19;20151;-82
2023/08/23 06:06:58;;;;;;;5.32;3.50;;;24.10;99.90;;;;;;7389594;19;20142;-81
2023/08/23 06:09:24;;;;;;;4.45;3.60;;;24.20;99.90;;;;;;7388724;19;20491;-79
2023/08/23 06:11:49;;;;;;;5.78;3.92;;;24.20;99.90;;;;;;7391527;19;20151;-80
2023/08/23 06:14:20;;;;;;;5.15;3.63;;;24.20;99.90;;;;;;7387543;19;20144;-79
2023/08/23 06:16:46;;;;;;;5.05;3.60;;;24.30;99.90;;;;;;7387770;19;20371;-79
2023/08/23 06:19:11;;;;;;;5.60;4.07;;;24.30;99.90;;;;;;7386515;19;20138;-80
2023/08/23 06:21:39;;;;;;;4.15;3.60;;;24.30;99.90;;;;;;7383552;19;20138;-77
2023/08/23 06:24:05;;;;;;;6.18;4.13;;;24.40;99.90;;;;;;7385978;19;20138;-74
2023/08/23 06:26:31;;;;;;;8.02;4.20;;;24.50;99.90;;;;;;7387424;19;20134;-77
2023/08/23 06:28:56;;;;;;;8.15;4.22;;;24.50;99.90;;;;;;7389702;19;20460;-76
2023/08/23 06:31:22;;;;;;;5.75;4.55;;;24.50;99.90;;;;;;7387274;19;20151;-76
2023/08/23 06:33:48;;;;;;;6.63;3.67;;;24.40;99.90;;;;;;7387519;19;20150;-76
2023/08/23 06:36:14;;;;;;;5.38;3.88;;;24.50;99.90;;;;;;7387396;19;20190;-76
2023/08/23 06:38:43;;;;;;;5.40;3.55;;;24.60;99.90;;;;;;7387694;19;20151;-77
2023/08/23 06:41:09;;;;;;;4.80;3.53;;;24.40;99.90;;;;;;7385418;19;20131;-77
2023/08/23 06:43:34;;;;;;;5.10;3.38;;;24.40;99.90;;;;;;7387705;19;20210;-76
2023/08/23 06:46:03;;;;;;;3.97;3.55;;;24.50;99.90;;;;;;7387861;19;20150;-76
2023/08/23 06:48:28;;;;;;;6.35;4.32;;;24.70;99.90;;;;;;7387243;19;20135;-76
2023/08/23 06:50:54;;;;;;;9.32;4.00;;;24.80;99.90;;;;;;7387951;19;20126;-76
2023/08/23 06:53:20;;;;;;;9.52;4.78;;;24.90;99.90;;;;;;7385568;19;20135;-76
2023/08/23 06:55:46;;;;;;;5.03;3.85;;;24.90;99.90;;;;;;7388485;19;20130;-76
2023/08/23 06:58:12;;;;;;;5.03;3.92;;;24.80;99.90;;;;;;7385720;19;20146;-77
2023/08/23 07:00:38;;;;;;;4.53;3.55;;;24.70;99.90;;;;;;7385313;19;20130;-76
2023/08/23 07:03:04;;;;;;;4.45;4.03;;;24.90;99.90;;;;;;7386635;19;20155;-77
2023/08/23 07:05:32;;;;;;;7.05;4.63;;;25.00;99.90;;;;;;7383121;19;20671;-76
2023/08/23 07:07:58;;;;;;;4.78;3.95;;;25.50;99.90;;;;;;7388624;19;20146;-76
2023/08/23 07:10:24;;;;;;;5.57;3.63;;;26.10;99.90;;;;;;7386872;19;20158;-77
2023/08/23 07:12:49;;;;;;;6.18;3.92;;;26.60;99.90;;;;;;7385239;19;20131;-76
2023/08/23 07:15:15;;;;;;;4.03;3.60;;;26.80;99.90;;;;;;7385194;19;20659;-79
2023/08/23 07:17:41;;;;;;;7.53;3.58;;;27.00;99.90;;;;;;7386082;19;20138;-77
2023/08/23 07:20:09;;;;;;;8.02;3.80;;;27.30;99.90;;;;;;7386824;19;20177;-79
2023/08/23 07:22:35;;;;;;;7.22;3.95;;;27.60;99.90;;;;;;7385245;19;20134;-78
2023/08/23 07:25:01;;;;;;;5.43;3.50;;;27.80;99.90;;;;;;7386361;19;20141;-78
2023/08/23 07:27:27;;;;;;;5.63;4.15;;;28.30;99.90;;;;;;7385278;19;20541;-77
2023/08/23 07:29:52;;;;;;;5.45;3.90;;;28.30;99.90;;;;;;7387798;19;20596;-77
2023/08/23 07:32:18;;;;;;;5.55;3.33;;;28.20;99.90;;;;;;7386122;19;20533;-75
2023/08/23 07:34:44;;;;;;;8.10;3.85;;;28.30;99.90;;;;;;7385037;19;20590;-78
2023/08/23 07:37:10;;;;;;;7.60;4.03;;;28.70;99.90;;;;;;7384719;19;20168;-79
2023/08/23 07:39:35;;;;;;;6.88;3.40;;;28.70;99.90;;;;;;7386122;19;20536;-79
2023/08/23 07:42:01;;;;;;;5.53;3.90;;;28.80;99.90;;;;;;7384307;19;20148;-79
2023/08/23 07:44:28;;;;;;;6.60;3.83;;;29.10;99.90;;;;;;7383554;19;20134;-79
2023/08/23 07:46:54;;;;;;;4.68;4.18;;;29.30;99.90;;;;;;7384746;19;20173;-75
2023/08/23 07:49:20;;;;;;;5.53;4.78;;;29.30;99.90;;;;;;7386353;19;20142;-75
2023/08/23 07:51:45;;;;;;;7.10;4.05;;;29.20;99.90;;;;;;7384763;19;20602;-77
2023/08/23 07:54:13;;;;;;;6.22;3.90;;;29.30;99.90;;;;;;7384381;19;20146;-76
2023/08/23 07:56:38;;;;;;;4.60;3.30;;;29.40;99.90;;;;;;7384774;19;20504;-78
2023/08/23 07:59:04;;;;;;;6.20;3.58;;;29.20;99.90;;;;;;7384489;19;20137;-78
2023/08/23 08:01:30;;;;;;;6.03;3.78;;;29.30;99.90;;;;;;7383558;19;20625;-75
2023/08/23 08:03:58;;;;;;;4.53;3.88;;;29.50;99.90;;;;;;7382566;19;20189;-77
2023/08/23 08:06:24;;;;;;;3.80;3.10;;;29.60;99.90;;;;;;7384851;19;20143;-76
2023/08/23 08:08:51;;;;;;;3.95;3.42;;;29.90;99.90;;;;;;7383988;19;20139;-77
2023/08/23 08:11:18;;;;;;;4.22;3.40;;;30.30;99.90;;;;;;7388878;19;20170;-75
2023/08/23 08:13:43;;;;;;;4.80;3.30;;;30.30;99.90;;;;;;7387450;19;20146;-76
2023/08/23 08:16:11;;;;;;;3.78;3.30;;;30.00;99.90;;;;;;7391011;19;20195;-77
2023/08/23 08:18:37;;;;;;;3.90;3.38;;;29.30;99.90;;;;;;7390305;19;20600;-77
2023/08/23 08:21:03;;;;;;;4.75;3.30;;;28.90;99.90;;;;;;7388290;19;20145;-76
2023/08/23 08:23:30;;;;;;;7.07;3.33;;;28.80;99.90;;;;;;7391775;19;20482;-76
2023/08/23 08:25:57;;;;;;;6.45;3.78;;;28.60;99.90;;;;;;7390894;19;20218;-76
2023/08/23 08:28:23;;;;;;;5.63;3.88;;;28.70;99.90;;;;;;7389097;19;20154;-76
2023/08/23 08:30:49;;;;;;;5.90;4.15;;;28.50;99.90;;;;;;7391294;19;20570;-76
2023/08/23 08:33:16;;;;;;;5.38;3.70;;;28.40;99.90;;;;;;7390607;19;20138;-76
2023/08/23 08:35:41;;;;;;;6.15;3.40;;;28.40;99.90;;;;;;7389645;19;20131;-75
2023/08/23 08:38:08;;;;;;;5.88;4.00;;;28.30;99.90;;;;;;7390197;19;20230;-76
2023/08/23 08:40:35;;;;;;;4.50;3.17;;;28.30;99.90;;;;;;7390168;19;20544;-74
2023/08/23 08:43:01;;;;;;;4.32;3.60;;;28.40;99.90;;;;;;7391554;19;20146;-74
2023/08/23 08:45:27;;;;;;;6.78;3.35;;;28.30;99.90;;;;;;7391352;19;20145;-76
2023/08/23 08:47:53;;;;;;;5.70;4.10;;;28.30;99.90;;;;;;7390412;19;20194;-76
2023/08/23 08:50:20;;;;;;;4.32;3.55;;;28.40;99.90;;;;;;7391006;19;20591;-75
2023/08/23 08:52:50;;;;;;;6.20;3.08;;;28.30;99.90;;;;;;7390036;19;20819;-74
2023/08/23 08:55:20;;;;;;;3.75;3.40;;;28.30;99.90;;;;;;7389496;19;20135;-74
2023/08/23 08:57:48;;;;;;;5.13;3.30;;;28.50;99.90;;;;;;7388949;19;20210;-75
2023/08/23 09:00:15;;;;;;;4.40;3.38;;;28.60;99.90;;;;;;7389153;19;20142;-75
2023/08/23 09:02:43;;;;;;;4.50;3.38;;;28.70;99.90;;;;;;7388581;19;20130;-75
2023/08/23 09:05:09;;;;;;;4.90;3.67;;;28.60;99.90;;;;;;7386663;19;20607;-74
2023/08/23 09:07:37;;;;;;;7.05;3.55;;;28.50;99.90;;;;;;7387122;19;20173;-75
2023/08/23 09:10:03;;;;;;;4.43;3.70;;;28.50;99.90;;;;;;7390218;19;20173;-75
2023/08/23 09:12:29;;;;;;;5.00;3.80;;;28.40;99.90;;;;;;7386724;19;20154;-74
2023/08/23 09:14:56;;;;;;;4.80;3.88;;;28.20;99.90;;;;;;7389622;19;20575;-75
2023/08/23 09:17:26;;;;;;;6.88;4.13;;;28.30;99.90;;;;;;7389515;19;20138;-75
2023/08/23 09:19:52;;;;;;;5.28;3.78;;;28.40;99.90;;;;;;7389868;19;20146;-76
2023/08/23 09:22:21;;;;;;;6.25;3.92;;;28.50;99.90;;;;;;7387277;19;20142;-74
2023/08/23 09:24:47;;;;;;;5.20;3.60;;;28.60;99.90;;;;;;7390502;19;20131;-74
2023/08/23 09:27:13;;;;;;;7.00;3.53;;;28.50;99.90;;;;;;7388617;19;20161;-75
2023/08/23 09:29:39;;;;;;;5.68;3.60;;;28.30;99.90;;;;;;7387801;19;20146;-75
2023/08/23 09:32:05;;;;;;;4.28;3.38;;;28.20;99.90;;;;;;7388725;19;20141;-75
2023/08/23 09:34:31;;;;;;;4.95;3.35;;;28.30;99.90;;;;;;7388406;19;20906;-74
2023/08/23 09:37:07;;;;;;;6.97;3.20;;;28.40;99.90;;;;;;7387946;19;20143;-75
2023/08/23 09:39:33;;;;;;;5.00;3.33;;;28.40;99.90;;;;;;7391146;19;20161;-74
2023/08/23 09:42:04;;;;;;;7.32;3.78;;;28.20;99.90;;;;;;7386152;19;20214;-73
2023/08/23 09:44:30;;;;;;;5.82;3.58;;;28.20;99.90;;;;;;7388057;19;20139;-75
2023/08/23 09:47:00;;;;;;;4.85;3.25;;;28.30;99.90;;;;;;7387363;19;20147;-75
2023/08/23 09:49:31;;;;;;;5.55;3.70;;;28.40;99.90;;;;;;7389563;19;20162;-75
2023/08/23 09:52:01;;;;;;;4.35;3.30;;;28.30;99.90;;;;;;7388867;19;20138;-74
2023/08/23 09:54:39;;;;;;;4.05;3.60;;;28.30;99.90;;;;;;7386751;19;20143;-75
2023/08/23 09:57:05;;;;;;;4.03;3.40;;;28.20;99.90;;;;;;7390974;19;20143;-75
2023/08/23 09:59:32;;;;;;;3.58;3.22;;;28.20;99.90;;;;;;7387050;19;20166;-75
2023/08/23 10:01:59;;;;;;;5.20;2.97;;;28.40;99.90;;;;;;7385529;19;20146;-75
2023/08/23 10:04:26;;;;;;;4.32;3.78;;;28.40;99.90;;;;;;7385895;19;20242;-74
2023/08/23 10:06:52;;;;;;;4.43;3.30;;;28.40;99.90;;;;;;7388036;19;20170;-76
2023/08/23 10:09:21;;;;;;;3.97;3.30;;;28.50;99.90;;;;;;7387582;19;20245;-75
2023/08/23 10:11:48;;;;;;;4.60;3.10;;;28.70;99.90;;;;;;7389996;19;20143;-74
2023/08/23 10:14:15;;;;;;;3.17;2.88;;;28.70;99.90;;;;;;7386715;19;20165;-76
2023/08/23 10:16:42;;;;;;;3.63;3.25;;;28.70;99.90;;;;;;7388860;19;20155;-76
2023/08/23 10:19:09;;;;;;;4.38;3.85;;;29.00;99.90;;;;;;7389492;19;20135;-76
2023/08/23 10:21:35;;;;;;;4.82;3.30;;;29.20;99.90;;;;;;7384091;19;20138;-75
2023/08/23 10:24:06;;;;;;;6.95;3.45;;;29.10;99.90;;;;;;7388267;19;20127;-74
2023/08/23 10:26:49;;;;;;;5.55;3.25;;;29.00;99.90;;;;;;7387497;19;20485;-75
2023/08/23 10:29:28;;;;;;;4.55;3.35;;;29.10;99.90;;;;;;7387007;19;20135;-75
2023/08/23 10:31:55;;;;;;;5.35;3.55;;;28.90;99.90;;;;;;7387674;19;20761;-75
2023/08/23 10:34:27;;;;;;;4.13;3.35;;;28.90;99.90;;;;;;7385483;19;20146;-74
2023/08/23 10:36:56;;;;;;;4.85;3.33;;;28.90;99.90;;;;;;7386619;19;20134;-75
2023/08/23 10:39:26;;;;;;;4.80;2.90;;;29.00;99.90;;;;;;7387973;19;20139;-75
2023/08/23 10:41:55;;;;;;;6.38;3.75;;;29.20;99.90;;;;;;7384756;19;20475;-75
2023/08/23 10:44:21;;;;;;;3.75;3.03;;;29.40;99.90;;;;;;7386175;19;20157;-74
2023/08/23 10:46:50;;;;;;;3.55;2.95;;;29.40;99.90;;;;;;7387040;19;20573;-76
2023/08/23 10:49:20;;;;;;;5.40;3.45;;;29.30;99.90;;;;;;7387920;19;20155;-74
2023/08/23 10:51:46;;;;;;;5.45;3.05;;;29.20;99.90;;;;;;7386250;19;20146;-74
2023/08/23 10:54:13;;;;;;;5.28;2.95;;;29.10;99.90;;;;;;7385611;19;20158;-74
2023/08/23 10:56:39;;;;;;;6.07;2.95;;;29.10;99.90;;;;;;7387298;19;20134;-75
2023/08/23 10:59:08;;;;;;;5.72;3.15;;;29.20;99.90;;;;;;7387082;19;20131;-75
2023/08/23 11:01:37;;;;;;;4.03;3.13;;;29.40;99.90;;;;;;7386101;19;20145;-75
2023/08/23 11:04:03;;;;;;;5.07;3.10;;;29.70;99.90;;;;;;7383865;19;20174;-77
2023/08/23 11:06:30;;;;;;;7.28;4.78;;;29.80;99.90;;;;;;7385963;19;20131;-75
2023/08/23 11:08:57;;;;;;;4.38;3.28;;;29.90;99.90;;;;;;7385501;19;20137;-75
2023/08/23 11:11:30;;;;;;;4.60;2.92;;;29.80;99.90;;;;;;7385511;19;20161;-76
2023/08/23 11:13:57;;;;;;;5.45;2.90;;;30.10;99.90;;;;;;7387012;19;20135;-74
2023/08/23 11:16:23;;;;;;;6.88;3.80;;;30.30;99.90;;;;;;7385069;19;20540;-74
2023/08/23 11:18:49;;;;;;;4.43;2.85;;;30.50;99.90;;;;;;7385562;19;20738;-75
2023/08/23 11:21:16;;;;;;;5.13;3.28;;;30.50;99.90;;;;;;7386526;19;20138;-75
2023/08/23 11:23:42;;;;;;;4.78;3.28;;;30.30;99.90;;;;;;7383315;19;20157;-74
2023/08/23 11:26:08;;;;;;;5.25;3.45;;;30.00;99.90;;;;;;7384859;19;20221;-75
2023/08/23 11:28:33;;;;;;;5.47;3.22;;;29.90;99.90;;;;;;7385022;19;20153;-75
2023/08/23 11:30:59;;;;;;;4.85;2.88;;;29.90;99.90;;;;;;7386159;19;20126;-75
2023/08/23 11:33:26;;;;;;;6.40;2.78;;;29.90;99.90;;;;;;7384199;19;20174;-75
2023/08/23 11:35:52;;;;;;;5.47;3.30;;;30.00;99.90;;;;;;7385593;19;20174;-75
2023/08/23 11:38:17;;;;;;;5.20;3.70;;;30.10;99.90;;;;;;7386729;19;20172;-75
2023/08/23 11:40:46;;;;;;;6.38;3.97;;;30.20;99.90;;;;;;7384530;19;20154;-75
2023/08/23 11:43:16;;;;;;;5.25;3.13;;;30.30;99.90;;;;;;7383789;19;20235;-75
2023/08/23 11:45:42;;;;;;;3.67;2.97;;;30.10;99.90;;;;;;7386652;19;20218;-75
2023/08/23 11:48:11;;;;;;;4.88;2.90;;;29.80;99.90;;;;;;7389848;19;20146;-74
2023/08/23 11:50:40;;;;;;;4.18;3.72;;;29.80;99.90;;;;;;7391542;19;20138;-75
2023/08/23 11:53:06;;;;;;;9.07;3.20;;;29.80;99.90;;;;;;7391898;19;20146;-74
2023/08/23 11:55:33;;;;;;;5.65;3.33;;;30.00;99.90;;;;;;7393532;19;20896;-75
2023/08/23 11:58:02;;;;;;;4.63;3.33;;;30.10;99.90;;;;;;7389773;19;20138;-75
2023/08/23 12:00:28;;;;;;;3.17;2.88;;;30.10;99.90;;;;;;7389139;19;20142;-75
2023/08/23 12:02:54;;;;;;;4.47;3.40;;;29.90;99.90;;;;;;7391563;19;20134;-75
2023/08/23 12:05:19;;;;;;;3.40;2.97;;;29.90;99.90;;;;;;7388011;19;20150;-75
2023/08/23 12:07:48;;;;;;;3.45;2.70;;;29.90;99.90;;;;;;7391590;19;20155;-75
2023/08/23 12:10:14;;;;;;;5.57;3.60;;;30.20;99.90;;;;;;7389923;19;20157;-75
2023/08/23 12:12:40;;;;;;;6.60;2.63;;;30.30;99.90;;;;;;7390730;19;20139;-76
2023/08/23 12:15:07;;;;;;;5.93;3.33;;;30.40;99.90;;;;;;7389618;19;20560;-75
2023/08/23 12:17:34;;;;;;;4.15;3.60;;;30.50;99.90;;;;;;7391138;19;20143;-75
2023/08/23 12:20:00;;;;;;;3.55;2.92;;;30.50;99.90;;;;;;7390737;19;20659;-75
2023/08/23 12:22:26;;;;;;;3.90;2.80;;;30.50;99.90;;;;;;7391655;19;20159;-75
2023/08/23 12:24:52;;;;;;;4.75;2.97;;;30.50;99.90;;;;;;7389390;19;20143;-75
2023/08/23 12:27:17;;;;;;;4.70;2.97;;;30.40;99.90;;;;;;7391221;19;20575;-75
2023/08/23 12:29:44;;;;;;;5.00;3.17;;;30.40;99.90;;;;;;7389080;19;20151;-75
2023/08/23 12:32:10;;;;;;;3.25;2.70;;;30.50;99.90;;;;;;7389446;19;20503;-74
2023/08/23 12:34:36;;;;;;;4.53;3.83;;;30.50;99.90;;;;;;7388711;19;20222;-76
2023/08/23 12:37:02;;;;;;;2.90;2.70;;;30.50;99.90;;;;;;7387738;19;20139;-74
2023/08/23 12:39:29;;;;;;;3.80;2.75;;;30.50;99.90;;;;;;7391988;19;20138;-75
2023/08/23 12:41:55;;;;;;;4.07;2.85;;;30.60;99.90;;;;;;7387769;19;20159;-75
2023/08/23 12:44:21;;;;;;;3.47;2.70;;;30.60;99.90;;;;;;7389518;19;20818;-76
2023/08/23 12:46:47;;;;;;;4.05;3.00;;;30.60;99.90;;;;;;7390324;19;20143;-75